Captain Koulis — SV5456 — position and weather

sailwx.info

Track history (hours):
 
Tides and Currents Weather Stations Pressure Air Temp Water Temp Dewpoint Dewpoint Depression Visibility Wind Speed Wind Dir Waves Ship Positions

Captain Koulis

Last reported at 2014-Aug-21 12:32 UTC. Time now 2014-Aug-21 20:03 UTC.
Position N 36°23' E 025°25'.

Length 21 m.

Type: Passenger vessel. MMSI: 239173800.

Date/timePositionNaut miles runAvg speedWind from/ knotsBaromVisibWave heightAir tempDewpointWater temp
2014-Aug-21 12:32N 36°23' E 025°25'1515.1
2014-Aug-21 11:33N 36°37' E 025°18'7 6.5
2014-Aug-21 10:33N 36°43' E 025°16'0 0.0
2014-Aug-21 09:33N 36°43' E 025°16'0 0.0
2014-Aug-21 08:33N 36°43' E 025°16'0 0.0
2014-Aug-21 07:33N 36°43' E 025°16'0 0.0
2014-Aug-21 06:33N 36°43' E 025°16'1 0.4
2014-Aug-21 05:12N 36°43' E 025°16'0 0.0
2014-Aug-21 04:33N 36°43' E 025°16'1 0.6
2014-Aug-21 03:33N 36°43' E 025°16'0 0.0
2014-Aug-21 02:33N 36°43' E 025°16'0 0.0
2014-Aug-21 01:33N 36°43' E 025°16'0 0.0
2014-Aug-21 00:31N 36°43' E 025°16'0 0.0
2014-Aug-20 23:33N 36°43' E 025°16'0 0.0
2014-Aug-20 22:33N 36°43' E 025°16'0 0.0
2014-Aug-20 18:32N 36°43' E 025°16'0 0.0
2014-Aug-20 17:33N 36°43' E 025°16'0 0.0
2014-Aug-20 16:33N 36°43' E 025°16'1212.4
2014-Aug-20 15:33N 36°31' E 025°20'9 9.1
2014-Aug-20 14:33N 36°23' E 025°26'2 0.2
2014-Aug-20 05:29N 36°25' E 025°25'1 0.6
2014-Aug-20 04:33N 36°25' E 025°26'0 0.0
2014-Aug-19 19:07N 36°25' E 025°25'2 2.0
2014-Aug-19 18:08N 36°23' E 025°26'2 2.4
2014-Aug-19 17:29N 36°25' E 025°25'0 0.2
2014-Aug-19 16:12N 36°24' E 025°25'1 0.0
2014-Aug-18 16:12N 36°24' E 025°25'1 1.6
2014-Aug-18 15:31N 36°25' E 025°25'1 1.0
2014-Aug-18 14:19N 36°24' E 025°24'1 0.1
2014-Aug-18 07:31N 36°25' E 025°25'0 0.0
2014-Aug-17 13:33N 36°25' E 025°26'2 1.7
2014-Aug-17 12:33N 36°23' E 025°26'1 0.2
2014-Aug-17 06:17N 36°24' E 025°25'1 0.9
2014-Aug-17 05:33N 36°25' E 025°25'0 0.3
2014-Aug-17 04:15N 36°25' E 025°26'25 1.5
2014-Aug-16 11:33N 36°36' E 024°57'0 0.1
2014-Aug-16 10:33N 36°36' E 024°57'1 0.5
2014-Aug-16 09:33N 36°37' E 024°57'1919.4
2014-Aug-16 08:33N 36°29' E 025°19'8 7.2
2014-Aug-16 07:29N 36°23' E 025°26'0 0.0
2014-Aug-15 05:31N 36°23' E 025°26'2 1.7
2014-Aug-15 04:32N 36°25' E 025°25'2 0.1
2014-Aug-14 12:15N 36°25' E 025°27'1420.1
2014-Aug-14 11:34N 36°37' E 025°20'7 1.3
2014-Aug-14 06:33N 36°43' E 025°17'1 0.6
2014-Aug-14 05:33N 36°43' E 025°16'0 0.4
2014-Aug-14 04:33N 36°43' E 025°16'0 0.4
2014-Aug-14 03:33N 36°43' E 025°16'0 0.0
2014-Aug-14 02:33N 36°43' E 025°16'0 0.0
2014-Aug-13 20:10N 36°43' E 025°16'0 0.0
2014-Aug-13 19:33N 36°43' E 025°16'0 0.0
2014-Aug-13 18:33N 36°43' E 025°16'0 0.0
2014-Aug-13 17:33N 36°43' E 025°16'6 5.9
2014-Aug-13 16:33N 36°38' E 025°18'1514.9
2014-Aug-13 15:34N 36°24' E 025°25'1 0.1
2014-Aug-13 08:05N 36°25' E 025°25'0 0.5
2014-Aug-13 07:30N 36°25' E 025°25'0 0.1
2014-Aug-13 06:33N 36°25' E 025°25'0 0.2
2014-Aug-13 05:33N 36°25' E 025°25'0 0.2
2014-Aug-13 04:20N 36°25' E 025°25'1 0.1
2014-Aug-12 05:33N 36°23' E 025°26'  
Track history (hours):
 
Tides and Currents Weather Stations Pressure Air Temp Water Temp Dewpoint Dewpoint Depression Visibility Wind Speed Wind Dir Waves Ship Positions

Captain Koulis

Last reported at 2014-Aug-21 12:32 UTC. Time now 2014-Aug-21 20:03 UTC.
Position N 36°23' E 025°25'.

Length 21 m.

Type: Passenger vessel. MMSI: 239173800.

Date/timePositionNaut miles runAvg speedWind from/ knotsBaromVisibWave heightAir tempDewpointWater temp
2014-Aug-21 12:32N 36°23' E 025°25'1515.1
2014-Aug-21 11:33N 36°37' E 025°18'7 6.5
2014-Aug-21 10:33N 36°43' E 025°16'0 0.0
2014-Aug-21 09:33N 36°43' E 025°16'0 0.0
2014-Aug-21 08:33N 36°43' E 025°16'0 0.0
2014-Aug-21 07:33N 36°43' E 025°16'0 0.0
2014-Aug-21 06:33N 36°43' E 025°16'1 0.4
2014-Aug-21 05:12N 36°43' E 025°16'0 0.0
2014-Aug-21 04:33N 36°43' E 025°16'1 0.6
2014-Aug-21 03:33N 36°43' E 025°16'0 0.0
2014-Aug-21 02:33N 36°43' E 025°16'0 0.0
2014-Aug-21 01:33N 36°43' E 025°16'0 0.0
2014-Aug-21 00:31N 36°43' E 025°16'0 0.0
2014-Aug-20 23:33N 36°43' E 025°16'0 0.0
2014-Aug-20 22:33N 36°43' E 025°16'0 0.0
2014-Aug-20 18:32N 36°43' E 025°16'0 0.0
2014-Aug-20 17:33N 36°43' E 025°16'0 0.0
2014-Aug-20 16:33N 36°43' E 025°16'1212.4
2014-Aug-20 15:33N 36°31' E 025°20'9 9.1
2014-Aug-20 14:33N 36°23' E 025°26'2 0.2
2014-Aug-20 05:29N 36°25' E 025°25'1 0.6
2014-Aug-20 04:33N 36°25' E 025°26'0 0.0
2014-Aug-19 19:07N 36°25' E 025°25'2 2.0
2014-Aug-19 18:08N 36°23' E 025°26'2 2.4
2014-Aug-19 17:29N 36°25' E 025°25'0 0.2
2014-Aug-19 16:12N 36°24' E 025°25'1 0.0
2014-Aug-18 16:12N 36°24' E 025°25'1 1.6
2014-Aug-18 15:31N 36°25' E 025°25'1 1.0
2014-Aug-18 14:19N 36°24' E 025°24'1 0.1
2014-Aug-18 07:31N 36°25' E 025°25'0 0.0
2014-Aug-17 13:33N 36°25' E 025°26'2 1.7
2014-Aug-17 12:33N 36°23' E 025°26'1 0.2
2014-Aug-17 06:17N 36°24' E 025°25'1 0.9
2014-Aug-17 05:33N 36°25' E 025°25'0 0.3
2014-Aug-17 04:15N 36°25' E 025°26'25 1.5
2014-Aug-16 11:33N 36°36' E 024°57'0 0.1
2014-Aug-16 10:33N 36°36' E 024°57'1 0.5
2014-Aug-16 09:33N 36°37' E 024°57'1919.4
2014-Aug-16 08:33N 36°29' E 025°19'8 7.2
2014-Aug-16 07:29N 36°23' E 025°26'0 0.0
2014-Aug-15 05:31N 36°23' E 025°26'2 1.7
2014-Aug-15 04:32N 36°25' E 025°25'2 0.1
2014-Aug-14 12:15N 36°25' E 025°27'1420.1
2014-Aug-14 11:34N 36°37' E 025°20'7 1.3
2014-Aug-14 06:33N 36°43' E 025°17'1 0.6
2014-Aug-14 05:33N 36°43' E 025°16'0 0.4
2014-Aug-14 04:33N 36°43' E 025°16'0 0.4
2014-Aug-14 03:33N 36°43' E 025°16'0 0.0
2014-Aug-14 02:33N 36°43' E 025°16'0 0.0
2014-Aug-13 20:10N 36°43' E 025°16'0 0.0
2014-Aug-13 19:33N 36°43' E 025°16'0 0.0
2014-Aug-13 18:33N 36°43' E 025°16'0 0.0
2014-Aug-13 17:33N 36°43' E 025°16'6 5.9
2014-Aug-13 16:33N 36°38' E 025°18'1514.9
2014-Aug-13 15:34N 36°24' E 025°25'1 0.1
2014-Aug-13 08:05N 36°25' E 025°25'0 0.5
2014-Aug-13 07:30N 36°25' E 025°25'0 0.1
2014-Aug-13 06:33N 36°25' E 025°25'0 0.2
2014-Aug-13 05:33N 36°25' E 025°25'0 0.2
2014-Aug-13 04:20N 36°25' E 025°25'1 0.1
2014-Aug-12 05:33N 36°23' E 025°26'  

Dump ship's entire track history